Create Custom Reports and Graphics: Custom Report

Cow Mountain

Current Conditions

5/17/22 8:30 PM (-07:00)
Updated Every 15 Minutes
Temp 60.9 °F   14.2
Wind Dir WNW | 303 °
Wind Spd 11.7 mph   6.4
Wind Gust 27.0 mph   3.1
BatVolt 13.1 V   0.0
Monthly Rain 0.62 In
Seasonal Rainfall 23.78 In

Today & Yesterday

Midnight to Midnight

5/17/22 8:30 PM (-07:00)
Updated Every 15 Minutes
Daily Max Temp 67.7 °F   9.2
Time of Max Temp 1031
Daily Min Temp 54.0 °F   12.5
Time of Min Temp 0101
Daily Max Wind 35.3 mph   0.2
Time of Max Wind 1526
Max Wind Dir W | 274 °
Daily Rain 0.00 In
Yest MaxT 58.5 °F
Yest MinT 41.5 °F
Yest MaxGst 35.1 mph
Yest Rain 0.00 In

Last 7 Days

Cow Mountain

Hourly Data | America/Los_Angeles
as of 5/17/22 8:44 PM PDT
Date & Time Temp (°F) WindChill (°F) Wind Dir (°) Wind Spd (mph) Wind Gust (mph) BatVolt (V) Latest Rain (In) Max Rain Intensity (In/Hr) Rain 24Hr (In) Daily Rain (In) Daily Min Temp (°F) Daily Max Temp (°F)
5/17/22 - 2000 59.7 - WNW | 289 15.3 25.2 13.2 0.00 - - 0.00 54.0 67.7
5/17/22 - 1900 60.8 - WNW | 283 16.2 27.0 13.6 0.00 - - 0.00 54.0 67.7
5/17/22 - 1800 63.6 - W | 277 16.3 30.9 13.6 0.00 - - 0.00 54.0 67.7
5/17/22 - 1700 63.8 - W | 274 17.1 29.4 13.6 0.00 - - 0.00 54.0 67.7
5/17/22 - 1600 62.6 - W | 271 21.4 35.3 13.6 0.00 - - 0.00 54.0 67.7
5/17/22 - 1500 64.5 - W | 273 18.6 31.8 13.7 0.00 - - 0.00 54.0 67.7
5/17/22 - 1400 63.6 - W | 273 15.1 27.4 13.7 0.00 - - 0.00 54.0 67.7
5/17/22 - 1300 61.9 - W | 268 12.0 21.3 13.7 0.00 - - 0.00 54.0 67.7
5/17/22 - 1200 60.9 - WNW | 289 7.5 13.8 13.7 0.00 - - 0.00 54.0 67.7
5/17/22 - 1100 64.4 - WSW | 245 2.6 9.6 13.7 0.00 - - 0.00 54.0 67.7
5/17/22 - 1000 64.6 - N | 5 2.6 8.8 13.7 0.00 - - 0.00 54.0 67.0
5/17/22 - 0900 60.1 - NW | 320 6.4 11.2 13.7 0.00 - - 0.00 54.0 63.1
5/17/22 - 0800 58.7 - NW | 312 7.2 14.9 13.8 0.00 - - 0.00 54.0 63.1
5/17/22 - 0700 59.8 - NNW | 331 7.6 11.0 13.4 0.00 - - 0.00 54.0 63.1
5/17/22 - 0600 60.6 - NNW | 340 9.8 19.3 12.8 0.00 - - 0.00 54.0 63.1
5/17/22 - 0500 58.7 - NNW | 329 10.7 22.1 12.8 0.00 - - 0.00 54.0 60.2
5/17/22 - 0400 56.9 - NW | 311 8.8 23.2 12.9 0.00 - - 0.00 54.0 57.7
5/17/22 - 0300 56.0 - NW | 311 8.9 24.8 12.9 0.00 - - 0.00 54.0 56.8
5/17/22 - 0200 55.4 - NW | 321 10.2 24.3 13.0 0.00 - - 0.00 54.0 56.4
5/17/22 - 0100 53.1 - WNW | 296 9.4 25.9 13.0 0.00 - - 0.00 41.5 58.5
5/17/22 - 0000 50.7 - WNW | 288 15.2 26.7 13.0 0.00 - - 0.00 41.5 58.5
5/16/22 - 2300 50.1 - WNW | 290 14.1 27.0 13.0 0.00 - - 0.00 41.5 58.5
5/16/22 - 2200 50.0 - WNW | 289 18.6 31.1 13.0 0.00 - - 0.00 41.5 58.5
5/16/22 - 2100 47.7 41.0 WNW | 291 18.0 31.4 13.1 0.00 - - 0.00 41.5 58.5
5/16/22 - 2000 50.1 - WNW | 283 16.2 26.7 13.2 0.00 - - 0.00 41.5 58.5
5/16/22 - 1900 53.5 - W | 270 20.2 30.5 13.8 0.00 - - 0.00 41.5 58.5
5/16/22 - 1800 56.1 - W | 271 21.0 33.5 13.7 0.00 - - 0.00 41.5 58.5
5/16/22 - 1700 57.0 - W | 272 19.8 31.1 13.7 0.00 - - 0.00 41.5 58.5
5/16/22 - 1600 57.2 - W | 273 19.5 30.2 13.7 0.00 - - 0.00 41.5 58.5
5/16/22 - 1500 57.0 - W | 272 18.8 28.3 13.7 0.00 - - 0.00 41.5 58.5
5/16/22 - 1400 56.1 - W | 273 16.7 27.0 13.8 0.00 - - 0.00 41.5 57.8
5/16/22 - 1300 54.3 - W | 271 16.3 28.3 13.8 0.00 - - 0.00 41.5 55.5
5/16/22 - 1200 53.1 - W | 273 15.8 26.3 13.8 0.00 - - 0.00 41.5 54.9
5/16/22 - 1100 50.2 - W | 275 15.0 26.5 13.9 0.00 - - 0.00 41.5 52.2
5/16/22 - 1000 48.6 43.5 WNW | 282 12.6 22.6 13.9 0.00 - - 0.00 41.5 49.6
5/16/22 - 0900 47.4 41.9 WNW | 288 13.0 27.2 13.9 0.00 - - 0.00 41.5 49.6
5/16/22 - 0800 45.7 39.0 WNW | 288 15.2 29.8 14.0 0.00 - - 0.00 41.5 49.6
5/16/22 - 0700 44.1 37.1 WNW | 292 15.1 29.6 13.7 0.00 - - 0.00 41.5 49.6
5/16/22 - 0600 43.2 35.3 WNW | 290 17.5 30.0 12.8 0.00 - - 0.00 41.5 49.6
5/16/22 - 0500 43.0 34.3 WNW | 292 20.2 30.7 12.8 0.00 - - 0.00 41.5 49.6
5/16/22 - 0400 43.7 35.1 WNW | 291 21.0 35.1 12.9 0.00 - - 0.00 41.5 49.6
5/16/22 - 0300 42.0 33.1 WNW | 291 20.1 28.9 12.9 0.00 - - 0.00 41.5 49.6
5/16/22 - 0200 46.0 39.3 WNW | 293 16.1 28.9 13.0 0.00 - - 0.00 42.3 49.6
5/16/22 - 0100 46.2 40.3 WNW | 292 13.1 28.3 13.0 0.00 - - 0.00 42.7 65.8
5/16/22 - 0000 44.6 37.0 WNW | 292 17.6 28.9 13.0 0.00 - - 0.00 42.7 65.8
5/15/22 - 2300 44.7 36.9 WNW | 293 18.8 29.2 13.0 0.00 - - 0.00 43.5 65.8
5/15/22 - 2200 45.5 37.6 WNW | 292 20.4 30.2 13.0 0.00 - - 0.00 44.8 65.8
5/15/22 - 2100 47.8 41.2 WNW | 287 17.8 27.4 13.1 0.00 - - 0.00 45.9 65.8
5/15/22 - 2000 52.3 - W | 270 17.6 31.6 13.2 0.00 - - 0.00 50.2 65.8
5/15/22 - 1900 55.2 - W | 269 20.9 31.8 13.7 0.00 - - 0.00 51.0 65.8
5/15/22 - 1800 57.1 - W | 268 19.8 30.9 13.7 0.00 - - 0.00 51.0 65.8
5/15/22 - 1700 55.8 - W | 272 18.3 30.9 13.7 0.00 - - 0.00 51.0 65.8
5/15/22 - 1600 59.3 - W | 271 17.8 29.8 13.7 0.00 - - 0.00 51.0 65.8
5/15/22 - 1500 58.9 - W | 270 19.1 30.5 13.7 0.00 - - 0.00 51.0 65.8
5/15/22 - 1400 58.9 - W | 270 18.0 28.7 13.7 0.00 - - 0.00 51.0 65.8
5/15/22 - 1300 58.8 - W | 273 16.6 28.7 13.7 0.00 - - 0.00 51.0 65.8
5/15/22 - 1200 59.2 - W | 272 16.1 28.9 13.7 0.00 - - 0.00 51.0 65.8
5/15/22 - 1100 57.0 - W | 278 14.5 27.2 13.8 0.00 - - 0.00 51.0 65.8
5/15/22 - 1000 55.6 - W | 278 16.6 28.5 13.8 0.00 - - 0.00 51.0 65.8
5/15/22 - 0900 54.5 - WNW | 283 16.4 29.8 13.8 0.00 - - 0.00 51.0 65.8
5/15/22 - 0800 53.5 - W | 277 14.6 27.2 13.8 0.00 - - 0.00 51.0 65.8
5/15/22 - 0700 63.5 - WNW | 288 6.5 12.5 13.3 0.00 - - 0.00 58.6 65.8
5/15/22 - 0600 65.5 - NW | 306 4.6 5.5 12.9 0.00 - - 0.00 61.3 65.8
5/15/22 - 0500 64.8 - NW | 308 5.4 6.8 12.9 0.00 - - 0.00 61.3 65.7
5/15/22 - 0400 65.0 - NW | 311 6.4 8.3 12.9 0.00 - - 0.00 61.3 65.6
5/15/22 - 0300 64.2 - NW | 313 8.2 10.7 13.0 0.00 - - 0.00 61.3 64.7
5/15/22 - 0200 62.7 - NW | 318 9.0 14.0 13.0 0.00 - - 0.00 61.3 63.6
5/15/22 - 0100 61.0 - WNW | 302 10.2 17.5 13.0 0.00 - - 0.00 47.3 69.0
5/15/22 - 0000 60.6 - WNW | 292 11.3 19.3 13.0 0.00 - - 0.00 47.3 69.0
5/14/22 - 2300 60.3 - WNW | 297 8.1 18.4 13.0 0.00 - - 0.00 47.3 69.0
5/14/22 - 2200 60.9 - WNW | 301 8.0 20.6 13.1 0.00 - - 0.00 47.3 69.0
5/14/22 - 2100 60.9 - WNW | 293 8.6 20.6 13.1 0.00 - - 0.00 47.3 69.0
5/14/22 - 2000 61.6 - WNW | 282 12.0 18.6 13.2 0.00 - - 0.00 47.3 69.0
5/14/22 - 1900 63.5 - W | 274 16.5 25.0 13.6 0.00 - - 0.00 47.3 69.0
5/14/22 - 1800 64.8 - W | 275 17.8 24.1 13.6 0.00 - - 0.00 47.3 69.0
5/14/22 - 1700 66.4 - W | 272 16.2 28.3 13.6 0.00 - - 0.00 47.3 69.0
5/14/22 - 1600 67.8 - W | 270 13.1 25.2 13.6 0.00 - - 0.00 47.3 69.0
5/14/22 - 1500 66.7 - W | 275 11.1 22.1 13.6 0.00 - - 0.00 47.3 68.4
5/14/22 - 1400 65.4 - W | 271 10.8 21.3 13.7 0.00 - - 0.00 47.3 66.4
5/14/22 - 1300 63.9 - W | 266 7.6 15.8 13.7 0.00 - - 0.00 47.3 65.7
5/14/22 - 1200 61.2 - W | 279 8.9 15.8 13.7 0.00 - - 0.00 47.3 63.8
5/14/22 - 1100 59.8 - WNW | 290 6.9 15.8 13.7 0.00 - - 0.00 47.3 60.5
5/14/22 - 1000 56.7 - WNW | 301 5.8 13.8 13.8 0.00 - - 0.00 47.3 59.3
5/14/22 - 0900 54.4 - NW | 317 6.1 12.9 13.8 0.00 - - 0.00 47.3 55.3
5/14/22 - 0800 53.4 - NNW | 334 8.8 17.3 13.8 0.00 - - 0.00 47.3 55.3
5/14/22 - 0700 50.9 - NW | 322 7.4 19.7 13.4 0.00 - - 0.00 47.3 53.9
5/14/22 - 0600 48.8 45.0 NW | 310 8.8 19.1 12.8 0.00 - - 0.00 47.3 53.9
5/14/22 - 0500 49.2 44.4 WNW | 293 11.7 19.7 12.8 0.00 - - 0.00 47.4 53.9
5/14/22 - 0400 52.6 - WNW | 299 7.2 16.2 12.9 0.00 - - 0.00 50.8 53.9
5/14/22 - 0300 53.3 - NW | 324 5.5 12.7 13.0 0.00 - - 0.00 52.4 53.9
5/14/22 - 0200 53.4 - NNW | 330 7.0 15.8 13.0 0.00 - - 0.00 53.0 53.9
5/14/22 - 0100 53.2 - NNW | 334 7.5 17.5 13.0 0.00 - - 0.00 41.8 59.5
5/14/22 - 0000 51.4 - NNW | 329 8.1 18.6 13.0 0.00 - - 0.00 41.8 59.5
5/13/22 - 2300 49.8 46.3 NW | 326 8.5 19.7 13.0 0.00 - - 0.00 41.8 59.5
5/13/22 - 2200 49.2 46.1 WNW | 292 7.4 16.4 13.1 0.00 - - 0.00 41.8 59.5
5/13/22 - 2100 49.9 45.5 WNW | 286 11.4 19.7 13.1 0.00 - - 0.00 41.8 59.5
5/13/22 - 2000 53.3 - W | 279 14.2 25.6 13.2 0.00 - - 0.00 41.8 59.5
5/13/22 - 1900 55.8 - W | 271 15.5 27.0 13.7 0.00 - - 0.00 41.8 59.5
5/13/22 - 1800 57.5 - W | 269 14.7 28.3 13.7 0.00 - - 0.00 41.8 59.5
5/13/22 - 1700 58.0 - W | 276 13.2 29.8 13.7 0.00 - - 0.00 41.8 59.5
5/13/22 - 1600 57.5 - W | 272 12.5 27.6 13.7 0.00 - - 0.00 41.8 58.7
5/13/22 - 1500 56.4 - W | 269 13.5 27.8 13.7 0.00 - - 0.00 41.8 57.7
5/13/22 - 1400 55.3 - W | 267 12.5 29.8 13.8 0.00 - - 0.00 41.8 57.5
5/13/22 - 1300 54.0 - W | 268 13.2 24.1 13.8 0.00 - - 0.00 41.8 55.2
5/13/22 - 1200 53.0 - W | 270 11.2 24.3 13.8 0.00 - - 0.00 41.8 55.0
5/13/22 - 1100 49.9 45.3 W | 272 11.8 19.7 13.8 0.00 - - 0.00 41.8 51.9
5/13/22 - 1000 48.4 44.1 W | 273 9.9 20.6 13.9 0.00 - - 0.00 41.8 48.8
5/13/22 - 0900 46.8 43.4 WNW | 290 6.9 15.1 13.9 0.00 - - 0.00 41.8 48.5
5/13/22 - 0800 45.1 40.9 WNW | 296 7.7 17.5 14.0 0.00 - - 0.00 41.8 45.6
5/13/22 - 0700 44.0 37.9 WNW | 294 12.0 20.8 13.5 0.00 - - 0.00 41.8 44.9
5/13/22 - 0600 42.4 35.7 WNW | 292 12.4 20.2 12.8 0.00 - 0.01 0.00 41.8 43.2
5/13/22 - 0500 42.4 36.2 WNW | 293 11.0 19.3 12.8 0.00 - 0.01 0.00 41.9 43.2
5/13/22 - 0400 42.5 37.0 WNW | 293 9.2 18.0 12.9 0.00 - 0.02 0.00 41.9 43.0
5/13/22 - 0300 42.5 37.8 WNW | 293 7.8 16.7 12.9 0.00 - 0.02 0.00 41.9 42.9
5/13/22 - 0200 42.4 36.8 WNW | 289 9.4 16.9 13.0 0.00 - 0.02 0.00 41.9 42.9
5/13/22 - 0100 41.8 35.5 WNW | 291 10.9 18.6 13.0 0.00 - 0.02 0.02 32.6 50.7
5/13/22 - 0000 41.7 35.8 WNW | 291 9.7 17.5 13.0 0.00 - 0.02 0.02 32.6 50.7
5/12/22 - 2300 41.9 36.1 WNW | 296 9.7 17.8 13.0 0.00 - 0.02 0.02 32.6 50.7
5/12/22 - 2200 41.0 34.8 WNW | 294 10.3 17.3 13.0 0.00 - 0.02 0.02 32.6 50.7
5/12/22 - 2100 41.7 35.2 WNW | 282 11.3 19.7 13.1 0.00 - 0.02 0.02 32.6 50.7
5/12/22 - 2000 44.0 37.2 W | 269 14.2 27.4 13.2 0.00 - 0.02 0.02 32.6 50.7
5/12/22 - 1900 46.8 39.5 W | 270 19.4 31.6 13.8 0.00 - 0.02 0.02 32.6 50.7
5/12/22 - 1800 48.4 42.0 W | 270 18.0 34.4 13.8 0.00 - 0.02 0.02 32.6 50.7
5/12/22 - 1700 48.9 42.9 W | 267 16.5 31.4 13.8 0.00 - 0.02 0.02 32.6 50.7
5/12/22 - 1600 49.0 43.3 W | 267 15.4 31.6 13.8 0.00 - 0.02 0.02 32.6 50.7
5/12/22 - 1500 48.4 42.6 W | 266 15.4 28.3 13.8 0.00 - 0.02 0.02 32.6 50.6
5/12/22 - 1400 47.2 41.2 W | 266 14.5 25.6 13.8 0.00 - 0.02 0.02 32.6 48.6
5/12/22 - 1300 44.8 37.8 W | 269 15.6 26.5 13.9 0.00 - 0.02 0.02 32.6 47.1
5/12/22 - 1200 41.5 33.5 W | 272 16.1 26.1 14.0 0.00 - 0.02 0.02 32.6 44.2
5/12/22 - 1100 39.3 30.7 W | 270 15.9 24.6 14.0 0.00 - 0.02 0.02 32.6 40.2
5/12/22 - 1000 37.3 27.7 W | 271 17.2 30.2 14.0 0.00 - 0.02 0.02 32.6 39.7
5/12/22 - 0900 34.8 23.8 W | 276 19.2 31.6 14.1 0.00 - 0.02 0.02 32.6 36.0
5/12/22 - 0800 33.5 22.7 W | 275 17.5 29.2 14.1 0.00 - 0.02 0.02 32.6 35.8
5/12/22 - 0700 33.3 23.5 WNW | 282 14.4 24.1 13.5 0.01 0.01 0.02 0.02 32.6 35.8
5/12/22 - 0600 33.5 22.7 WNW | 289 17.3 30.0 12.8 0.00 - 0.01 0.01 32.6 35.8
5/12/22 - 0500 33.0 22.9 WNW | 284 15.1 27.6 12.8 0.01 0.01 0.01 0.01 32.6 35.8
5/12/22 - 0400 32.8 21.9 WNW | 286 17.4 31.4 12.9 0.00 - - 0.00 32.6 35.8
5/12/22 - 0300 33.3 22.6 WNW | 289 16.9 28.1 12.9 0.00 - - 0.00 32.9 35.8
5/12/22 - 0200 34.7 25.3 WNW | 287 14.3 26.3 12.9 0.00 - - 0.00 33.0 35.8
5/12/22 - 0100 34.4 24.4 WNW | 292 15.8 26.5 13.0 0.00 - - 0.00 32.2 49.2
5/12/22 - 0000 33.7 22.8 WNW | 293 18.0 26.3 13.0 0.00 - - 0.00 32.2 49.2
5/11/22 - 2300 34.0 22.9 WNW | 291 18.7 28.7 13.0 0.00 - - 0.00 32.2 49.2
5/11/22 - 2200 34.6 23.8 WNW | 289 18.6 27.2 13.0 0.00 - - 0.00 32.2 49.2
5/11/22 - 2100 36.3 26.1 WNW | 288 18.1 28.5 13.1 0.00 - - 0.00 32.2 49.2
5/11/22 - 2000 39.3 29.8 W | 276 19.2 33.3 13.2 0.00 - - 0.00 32.2 49.2
5/11/22 - 1900 43.2 34.6 W | 269 20.4 33.8 13.9 0.00 - - 0.00 32.2 49.2
5/11/22 - 1800 46.1 38.2 W | 268 21.0 36.6 13.8 0.00 - - 0.00 32.2 49.2
5/11/22 - 1700 46.9 39.3 W | 271 21.5 36.0 13.8 0.00 - 0.02 0.00 32.2 49.2
5/11/22 - 1600 47.2 39.8 W | 268 20.3 34.2 13.8 0.00 - 0.03 0.00 32.2 49.2
5/11/22 - 1500 47.9 41.6 W | 267 16.4 30.9 13.8 0.00 - 0.03 0.00 32.2 49.2
5/11/22 - 1400 47.5 41.4 W | 264 15.0 28.3 13.8 0.00 - 0.03 0.00 32.2 49.2
5/11/22 - 1300 45.5 39.6 W | 270 12.3 24.1 13.9 0.00 - 0.03 0.00 32.2 47.2
5/11/22 - 1200 43.9 37.5 W | 272 12.9 21.5 13.9 0.00 - 0.03 0.00 32.2 45.4
5/11/22 - 1100 43.1 37.7 W | 275 9.4 19.3 14.0 0.00 - 0.03 0.00 32.2 43.9
5/11/22 - 1000 40.5 35.4 WNW | 283 7.5 16.7 14.0 0.00 - 0.03 0.00 32.2 42.2
5/11/22 - 0900 37.4 31.3 WNW | 289 8.3 16.7 14.0 0.00 - 0.03 0.00 32.2 40.3
5/11/22 - 0800 39.4 34.1 NNW | 330 7.5 16.2 14.0 0.00 - 0.03 0.00 32.2 40.3
5/11/22 - 0700 37.4 32.0 NW | 309 6.8 16.2 13.4 0.00 - 0.03 0.00 32.2 39.6
5/11/22 - 0600 36.7 30.7 WNW | 293 7.8 17.3 12.8 0.00 - 0.03 0.00 32.2 39.6
5/11/22 - 0500 35.9 27.6 WNW | 291 12.2 20.6 12.8 0.00 - 0.03 0.00 32.2 39.6
5/11/22 - 0400 36.7 29.5 WNW | 297 10.1 15.6 12.9 0.00 - 0.03 0.00 32.2 39.6
5/11/22 - 0300 35.3 28.8 NW | 312 8.0 15.3 12.9 0.00 - 0.03 0.00 32.2 39.6
5/11/22 - 0200 33.5 26.5 WNW | 298 8.4 16.9 13.0 0.00 - 0.03 0.00 32.3 38.6
5/11/22 - 0100 37.2 30.9 NNW | 345 8.4 15.8 13.0 0.00 - 0.03 0.03 29.6 45.3
5/11/22 - 0000 34.1 28.4 NW | 310 6.5 15.3 13.0 0.00 - 0.03 0.03 29.6 45.3
5/10/22 - 2300 32.8 23.3 WNW | 290 13.0 20.2 13.0 0.00 - 0.03 0.03 29.6 45.3
5/10/22 - 2200 33.0 24.2 WNW | 291 11.5 20.0 13.0 0.00 - 0.03 0.03 29.6 45.3
5/10/22 - 2100 34.0 23.7 W | 277 16.3 30.9 13.1 0.00 - 0.03 0.03 29.6 45.3
Max 67.8 46.3 - 21.5 36.6 14.1 0.01 0.01 0.03 0.03 61.3 69.0
Avg 50.2 34.7 - 13.2 23.8 13.4 0.00 0.01 0.02 - - -
Min 32.8 21.9 - 2.6 5.5 12.8 0.00 0.01 0.01 0.00 29.6 35.8
Total - - - - - - 0.02 - - - - -

Last 30 Days

Cow Mountain

Daily Data | America/Los_Angeles
as of 5/17/22 8:44 PM PDT
Date Daily Max Temp (°F) Time of Max Temp Daily Min Temp (°F) Time of Min Temp Daily Rain (In) Monthly Rain (In) Seasonal Rainfall (In) Daily Max Wind (mph) Time of Max Wind Max Wind Dir (°) Wind Spd (mph) Hrs <= 32F (hrs) Chilling <=45F (hrs) Storm Total (In) Daily Max Rain Intensity (In/Hr) Time of Max Rain Intensity Max 1 Min Rain (In) Max 1 Min Rain Time Max 15 Min Rain (In) Max 15 Min Precip Time Max 60 Min Rain (In) Max 60 Min Rain Time MinBV Day (V)
5/16/22 58.5 1415 41.5 0227 0.00 0.62 23.78 35.1 0347 WNW | 301 16.9 0.0 5.0 - - - - - - - - - 12.8
5/15/22 65.8 0523 42.7 2332 0.00 0.62 23.78 31.8 1836 W | 269 14.8 0.0 1.6 - - - - - - - - - 12.8
5/14/22 69.0 1519 47.3 0500 0.00 0.62 23.78 28.3 1626 W | 271 9.8 0.0 0.0 - - - - - - - - - 12.8
5/13/22 59.5 1643 41.8 0517 0.00 0.62 23.78 29.8 1359 W | 278 10.9 0.0 6.5 - - - - - - - - - 12.8
5/12/22 50.7 1554 32.6 0327 0.02 0.62 23.78 34.4 1749 W | 277 15.1 0.0 17.5 - 0.01 0441 0.01 0601 0.01 0615 0.01 0700 12.7
5/11/22 49.2 1337 32.2 0207 0.00 0.60 23.76 36.6 1703 W | 274 13.9 0.0 18.2 - - - - - - - - - 12.7
5/10/22 45.3 1410 29.6 0557 0.03 0.60 23.76 33.3 1321 W | 266 11.6 7.8 24.0 - 0.08 1713 0.01 1714 0.02 1720 0.03 1751 12.7
5/9/22 40.7 1306 30.4 0042 0.09 0.57 23.73 32.4 1315 WNW | 287 10.3 12.6 24.0 0.55 0.22 0839 0.01 1027 0.04 0852 0.07 0923 12.7
5/8/22 35.7 1531 30.3 2031 0.15 0.48 23.64 51.1 1730 W | 278 18.4 14.0 24.0 0.46 0.23 1126 0.01 1713 0.02 1701 0.04 1734 12.7
5/7/22 48.4 1425 32.4 0057 0.09 0.33 23.49 35.7 1512 WNW | 282 14.2 0.0 19.6 0.31 0.05 0735 0.01 1038 0.02 0738 0.03 0823 12.7
5/6/22 50.8 1331 40.4 2314 0.20 0.24 23.40 40.8 1830 W | 281 15.9 0.0 5.3 0.22 0.06 0726 0.01 2346 0.02 0730 0.04 0815 12.8
5/5/22 61.9 0124 43.8 1403 0.02 0.04 23.20 34.0 0849 W | 267 14.4 0.0 1.7 - 0.01 0006 0.01 0007 0.01 0021 0.02 0011 12.8
5/4/22 72.8 1513 56.7 2250 0.00 0.02 23.18 28.3 1606 WSW | 239 11.7 0.0 0.0 - - - - - - - - - 12.8
5/3/22 66.0 1559 43.0 0101 0.00 0.02 23.18 21.9 0457 ENE | 59 9.2 0.0 3.2 - - - - - - - - - 12.8
5/2/22 46.9 1526 35.6 0351 0.02 0.02 23.18 43.8 1523 W | 279 17.3 0.0 20.0 - 0.01 0625 0.01 0746 0.01 0800 0.01 0845 12.7
5/1/22 62.8 1528 38.8 0255 0.00 0.00 23.16 30.7 0041 WNW | 290 11.8 0.0 4.8 - - - - - - - - - 12.7
4/30/22 51.2 1326 38.2 2035 0.01 2.97 23.17 36.8 1919 W | 269 17.1 0.0 10.7 - 0.01 2303 0.01 2304 0.01 2318 0.01 0003 12.8
4/29/22 56.7 1523 40.5 0110 0.00 2.96 23.16 35.5 1702 W | 268 11.9 0.0 6.3 - - - - - - - - - 12.7
4/28/22 49.5 1441 31.1 0748 0.03 2.99 23.19 44.5 0914 WNW | 288 18.3 4.9 19.2 - 0.01 0101 0.01 0726 0.01 0740 0.01 0825 12.7
4/27/22 52.8 1552 34.4 0059 0.01 2.96 23.16 41.4 2335 W | 273 15.5 0.0 14.5 - 0.01 0036 0.01 0037 0.01 0051 0.01 0101 12.7
4/26/22 52.2 1327 36.8 0055 0.02 2.95 23.15 33.3 1602 W | 280 16.8 0.0 16.0 - 0.01 0541 0.01 0704 0.01 0718 0.01 0803 12.8
4/25/22 59.5 1357 41.0 0059 0.00 2.93 23.13 31.6 2015 WNW | 288 14.3 0.0 5.2 - - - - - - - - - 12.8
4/24/22 62.9 1500 49.0 2016 0.00 2.93 23.13 24.6 1606 W | 274 9.1 0.0 0.0 - - - - - - - - - 12.8
4/23/22 59.2 1429 41.5 0102 0.00 2.93 23.13 29.4 1815 WSW | 257 7.8 0.0 4.3 - - - - - - - - - 12.7
4/22/22 50.5 1515 34.1 0738 0.00 2.93 23.13 27.8 1832 W | 259 8.4 0.0 20.5 - 0.05 0101 - - 0.01 0103 0.03 0130 12.7
4/21/22 42.6 1421 34.4 0813 0.26 2.93 23.13 43.6 0118 WSW | 254 13.3 0.0 24.0 0.96 0.92 0105 0.02 0106 0.07 0117 0.20 0123 12.7
4/20/22 43.4 1800 36.0 0653 0.43 2.67 22.87 46.5 0032 WSW | 251 15.2 0.0 24.0 0.70 0.35 0046 0.01 0101 0.07 0050 0.15 0101 12.8
4/19/22 43.9 1336 34.7 0504 0.04 2.24 22.44 28.7 0440 W | 278 13.4 0.0 24.0 0.27 0.04 0101 0.01 1718 0.01 1732 0.03 0106 12.7
4/18/22 46.0 1207 36.8 0716 0.23 2.20 22.40 32.0 1612 SSW | 196 14.4 0.0 23.8 0.23 0.32 0008 0.01 0022 0.04 1946 0.08 2029 12.7
4/17/22 57.7 1558 40.3 2347 0.00 1.97 22.17 18.2 0101 W | 260 6.1 0.0 9.6 - - - - - - - - - 12.8
Max 72.8 - 56.7 - 0.43 2.99 23.78 51.1 - - 18.4 14.0 24.0 0.96 0.92 - 0.02 - 0.07 - 0.20 - 12.8
Avg - - - - - 1.49 - - - - 13.3 1.3 12.6 0.46 - - - - - - - - -
Min 35.7 - 29.6 - 0.00 0.00 22.17 18.2 - - 6.1 0.0 0.0 0.22 0.01 - 0.01 - 0.01 - 0.01 - 12.7
Total - - - - - - - - - - - 39.3 377.4 - - - - - - - - - -

Climate Summary

Cow Mountain

Current Year | Showing 1/1/22 - 5/16/22
as of 5/17/22 8:44 PM PDT
Temperature (°F) Max Wind Gust (mph) Precip (in) Days
Month Days Avg High Avg Low Max Min Avg Max Total Daily Min Temp < 32 Daily Max Temp > 90 Daily Rain > 0.01 Daily Rain > 0.1 Daily Max Wind > 30 Daily Max Wind > 40
Jan 2022 31 54.1 42.5 65 27.8 25.6 57.6 0.84 2 0 5 4 6 2
Feb 2022 28 57.7 43.4 73.7 25.7 27.5 52.4 0.12 6 0 3 0 10 3
Mar 2022 31 56.2 40.9 76.8 26.9 28.9 57.6 1.44 4 0 11 5 13 2
Apr 2022 30 53.5 38.4 81 26.6 34.7 52.8 3 6 0 13 8 21 9
May 2022 16 55.2 38.7 72.8 29.6 34.2 51.1 0.62 3 0 8 2 12 3
Total 136 - - - - - - 6.02 21 0 40 19 62 19
Average 27.2 55.3 41 55.3 41 29.8 - 1.2 4.2 0 8 3.8 12.4 3.8
Maximum 31 57.7 43.4 81 - - 57.6 3 6 0 13 8 21 9
Minimum 16 53.5 38.4 - 25.7 - - 0.12 2 0 3 0 6 2

Climate Summary

Cow Mountain

Last Year | Showing 1/1/21 - 12/31/21
as of 5/17/22 8:44 PM PDT
Temperature (°F) Max Wind Gust (mph) Precip (in) Days
Month Days Avg High Avg Low Max Min Avg Max Total Daily Min Temp < 32 Daily Max Temp > 90 Daily Rain > 0.01 Daily Rain > 0.1 Daily Max Wind > 30 Daily Max Wind > 40
Jan 2021 31 49.3 38.3 72.7 24.2 31.5 59.8 4.32 6 0 17 13 17 5
Feb 2021 28 51 37.9 67.6 27.5 33.9 57 2.85 7 0 12 10 16 6
Mar 2021 31 50.4 35.3 68.7 25.8 31.4 52.6 1.92 12 0 12 6 15 2
Apr 2021 30 61.9 45.1 73.8 31.3 29.5 39.5 0.41 1 0 3 1 16 0
May 2021 31 67.2 49.5 88.4 30.3 34.7 47.8 0.29 1 0 4 1 24 6
Jun 2021 30 76.4 58.5 94.2 35.5 31.7 46.2 0.21 0 4 4 0 15 6
Jul 2021 31 86.5 70.8 94.6 62.2 28.9 36 0 0 7 0 0 11 0
Aug 2021 31 84.1 67.3 93.1 54.6 29.6 45.4 0 0 4 0 0 11 2
Sep 2021 30 78.5 60.8 89.5 40.3 27.3 43.8 0.69 0 0 4 2 8 2
Oct 2021 31 60.8 46.8 81.7 34.6 29.1 56.8 8.78 0 0 13 9 11 4
Nov 2021 30 59.4 47.6 74.6 34.7 24.4 48.4 2.37 0 0 8 6 5 1
Dec 2021 31 45.1 36 74.2 23.6 29.3 51.1 6.63 13 0 18 13 16 5
Total 365 - - - - - - 28.47 40 15 95 61 165 39
Average 30.4 64.3 49.5 64.3 49.5 30.1 - 2.37 3.3 1.2 7.9 5.1 13.8 3.2
Maximum 31 86.5 70.8 94.6 - - 59.8 8.78 13 7 18 13 24 6
Minimum 28 45.1 35.3 - 23.6 - - 0 0 0 0 0 5 0
Calm: 0.0%
Calm: 0.0%